Time;durP1;ratioP1;P1;durP2;ratioP2;P2;SDS_P1;SDS_P2;PMS_P1;PMS_P2;Temp;Humidity;BMP_temperature;BMP_pressure;BME280_temperature;BME280_humidity;BME280_pressure;Samples;Min_cycle;Max_cycle;Signal;HPM_P1;HPM_P2
2022/08/28 00:02:19;;;;;;;8.40;3.33;;;26.50;67.40;;;;;;5035778;28;20028;-69
2022/08/28 00:04:44;;;;;;;8.65;3.28;;;26.50;67.40;;;;;;5040852;28;20025;-72
2022/08/28 00:07:10;;;;;;;7.25;3.20;;;26.50;67.30;;;;;;5035153;28;20025;-70
2022/08/28 00:09:37;;;;;;;8.05;3.72;;;26.50;67.50;;;;;;5032445;28;20057;-72
2022/08/28 00:12:05;;;;;;;8.68;3.15;;;26.50;67.60;;;;;;5015086;28;20132;-73
2022/08/28 00:14:31;;;;;;;8.25;3.35;;;26.40;67.80;;;;;;5032843;28;20156;-76
2022/08/28 00:16:57;;;;;;;6.95;3.45;;;26.40;67.90;;;;;;5033537;28;20078;-69
2022/08/28 00:19:23;;;;;;;5.82;3.45;;;26.40;67.80;;;;;;5036035;28;20434;-69
2022/08/28 00:21:49;;;;;;;6.15;3.20;;;26.40;67.70;;;;;;5035077;28;20049;-71
2022/08/28 00:24:16;;;;;;;5.68;3.05;;;26.40;68.00;;;;;;5036318;28;20029;-72
2022/08/28 00:29:26;;;;;;;6.80;3.92;;;26.30;68.10;;;;;;5036190;28;20049;-70
2022/08/28 00:31:52;;;;;;;6.13;3.05;;;26.30;68.60;;;;;;5036054;28;20458;-71
2022/08/28 00:34:18;;;;;;;9.35;3.03;;;26.20;68.70;;;;;;5036118;28;20037;-68
2022/08/28 00:36:44;;;;;;;6.63;3.28;;;26.20;68.70;;;;;;5035964;28;20390;-71
2022/08/28 00:39:10;;;;;;;9.75;3.20;;;26.10;69.00;;;;;;5036093;28;20466;-70
2022/08/28 00:41:38;;;;;;;8.52;3.50;;;26.10;69.10;;;;;;5036187;28;20029;-73
2022/08/28 00:44:14;;;;;;;7.43;3.25;;;26.10;69.30;;;;;;5036028;28;20036;-70
2022/08/28 00:46:42;;;;;;;6.60;3.40;;;26.00;69.00;;;;;;5036420;28;20025;-71
2022/08/28 00:49:09;;;;;;;8.40;3.75;;;26.00;69.90;;;;;;5036175;28;20034;-74
2022/08/28 00:54:21;;;;;;;8.93;3.60;;;26.00;70.00;;;;;;5021095;28;20133;-70
2022/08/28 00:56:48;;;;;;;8.38;3.13;;;26.00;70.00;;;;;;5035724;28;20100;-71
2022/08/28 00:59:17;;;;;;;7.60;3.25;;;26.00;69.90;;;;;;5035644;28;20123;-71
2022/08/28 01:01:45;;;;;;;6.22;3.47;;;25.90;70.30;;;;;;5018272;28;20053;-69
2022/08/28 01:04:16;;;;;;;9.57;3.75;;;26.00;70.20;;;;;;5035593;28;20029;-71
2022/08/28 01:06:45;;;;;;;5.90;3.28;;;26.00;70.30;;;;;;5035668;28;20029;-70
2022/08/28 01:09:11;;;;;;;7.60;3.47;;;25.90;70.30;;;;;;5034186;28;20049;-70
2022/08/28 01:11:40;;;;;;;8.88;3.40;;;25.90;70.60;;;;;;5035305;28;20522;-72
2022/08/28 01:14:08;;;;;;;7.03;3.47;;;25.70;71.00;;;;;;5035284;28;20076;-69
2022/08/28 01:16:35;;;;;;;12.95;4.22;;;25.70;71.40;;;;;;5035231;28;20443;-70
2022/08/28 01:19:06;;;;;;;10.43;3.95;;;25.70;71.40;;;;;;5035199;28;20030;-71
2022/08/28 01:21:41;;;;;;;8.00;3.50;;;25.70;71.50;;;;;;5035183;28;20026;-71
2022/08/28 01:24:11;;;;;;;8.10;3.72;;;25.70;71.80;;;;;;5035146;28;20087;-69
2022/08/28 01:26:37;;;;;;;7.47;3.80;;;25.80;71.70;;;;;;5035100;28;20108;-70
2022/08/28 01:29:03;;;;;;;6.68;3.65;;;25.80;71.50;;;;;;5035131;28;20034;-69
2022/08/28 01:31:30;;;;;;;6.75;3.50;;;25.70;71.70;;;;;;5034973;28;20028;-72
2022/08/28 01:33:59;;;;;;;7.13;3.60;;;25.70;71.90;;;;;;5034779;28;20108;-70
2022/08/28 01:36:27;;;;;;;6.85;3.00;;;25.70;72.00;;;;;;5034991;28;20026;-69
2022/08/28 01:39:23;;;;;;;8.30;3.47;;;25.60;71.90;;;;;;5034959;28;20053;-69
2022/08/28 01:41:51;;;;;;;9.95;3.22;;;25.50;71.70;;;;;;5029837;28;20029;-69
2022/08/28 01:44:22;;;;;;;6.25;3.17;;;25.50;72.40;;;;;;5034930;28;20104;-69
2022/08/28 01:46:48;;;;;;;5.72;3.13;;;25.50;72.30;;;;;;5034931;28;20093;-76
2022/08/28 01:49:14;;;;;;;7.72;3.10;;;25.40;72.40;;;;;;5017199;28;20113;-74
2022/08/28 01:51:41;;;;;;;7.35;3.35;;;25.40;72.30;;;;;;5034577;28;20022;-74
2022/08/28 01:54:08;;;;;;;6.60;2.85;;;25.40;72.40;;;;;;5034512;28;20060;-71
2022/08/28 01:56:34;;;;;;;7.93;3.22;;;25.40;72.30;;;;;;5034806;28;20014;-70
2022/08/28 01:59:03;;;;;;;9.52;3.25;;;25.40;72.30;;;;;;5034489;28;20052;-73
2022/08/28 02:01:29;;;;;;;8.27;3.25;;;25.30;72.80;;;;;;5034837;28;20096;-70
2022/08/28 02:03:55;;;;;;;7.63;3.45;;;25.20;72.60;;;;;;5034546;28;20466;-71
2022/08/28 02:06:21;;;;;;;6.75;3.15;;;25.20;73.00;;;;;;5034574;28;20067;-70
2022/08/28 02:08:48;;;;;;;7.55;3.10;;;25.20;72.90;;;;;;5034158;28;20072;-73
2022/08/28 02:11:15;;;;;;;7.70;3.47;;;25.30;72.90;;;;;;5034563;28;20033;-72
2022/08/28 02:13:41;;;;;;;6.20;3.20;;;25.30;73.00;;;;;;5019639;28;20053;-71
2022/08/28 02:16:09;;;;;;;7.60;3.05;;;25.20;72.70;;;;;;5035691;28;20079;-70
2022/08/28 02:18:36;;;;;;;7.50;3.17;;;25.20;73.30;;;;;;5034164;28;20113;-70
2022/08/28 02:21:03;;;;;;;7.57;3.47;;;25.20;73.20;;;;;;5016415;28;20033;-70
2022/08/28 02:23:29;;;;;;;11.15;3.53;;;25.20;73.20;;;;;;5017789;28;20025;-69
2022/08/28 02:25:55;;;;;;;7.47;3.30;;;25.20;73.00;;;;;;5038346;28;20021;-71
2022/08/28 02:28:20;;;;;;;6.40;2.85;;;25.20;73.00;;;;;;5039655;28;20075;-70
2022/08/28 02:30:46;;;;;;;6.95;2.90;;;25.20;73.10;;;;;;5040280;28;20025;-69
2022/08/28 02:33:12;;;;;;;7.32;3.13;;;25.20;73.00;;;;;;5034427;28;20033;-69
2022/08/28 02:35:40;;;;;;;4.93;3.08;;;25.20;73.10;;;;;;5033930;28;20079;-71
2022/08/28 02:38:06;;;;;;;6.68;3.20;;;25.20;73.00;;;;;;5033892;28;20417;-70
2022/08/28 02:40:32;;;;;;;8.25;3.13;;;25.20;73.10;;;;;;5033726;28;20466;-69
2022/08/28 02:42:57;;;;;;;9.90;3.05;;;25.10;72.90;;;;;;5033879;28;20030;-70
2022/08/28 02:45:23;;;;;;;6.45;3.20;;;25.10;73.00;;;;;;5033635;28;20021;-69
2022/08/28 02:47:52;;;;;;;7.45;3.05;;;25.10;73.10;;;;;;5033753;28;20041;-70
2022/08/28 02:50:21;;;;;;;7.57;2.70;;;25.10;73.20;;;;;;5033403;28;20418;-72
2022/08/28 02:52:47;;;;;;;7.47;2.88;;;25.10;73.10;;;;;;5033341;28;20513;-70
2022/08/28 02:55:16;;;;;;;8.77;3.17;;;25.10;73.00;;;;;;5033420;28;20060;-71
2022/08/28 02:57:42;;;;;;;5.47;2.88;;;25.00;72.30;;;;;;5033854;28;20033;-70
2022/08/28 03:00:13;;;;;;;8.07;2.70;;;25.00;73.20;;;;;;5034043;28;20363;-70
2022/08/28 03:02:40;;;;;;;7.53;2.65;;;25.00;73.20;;;;;;5016441;28;20080;-69
2022/08/28 03:05:07;;;;;;;6.18;2.95;;;25.00;73.70;;;;;;5033834;28;20024;-69
2022/08/28 03:07:32;;;;;;;7.00;2.67;;;25.00;73.20;;;;;;5033184;28;20026;-70
2022/08/28 03:09:58;;;;;;;6.95;3.33;;;25.00;73.20;;;;;;5032998;28;20095;-70
2022/08/28 03:12:24;;;;;;;9.00;2.90;;;25.00;73.20;;;;;;5033055;28;20037;-69
2022/08/28 03:14:54;;;;;;;11.15;3.20;;;25.00;73.10;;;;;;5033050;28;20022;-72
2022/08/28 03:17:20;;;;;;;8.00;2.97;;;25.00;73.10;;;;;;5033019;28;20033;-70
2022/08/28 03:19:48;;;;;;;6.93;2.58;;;25.00;72.70;;;;;;5032973;28;20052;-70
2022/08/28 03:22:16;;;;;;;8.00;3.60;;;25.00;73.20;;;;;;5032980;28;20032;-70
2022/08/28 03:24:43;;;;;;;8.90;2.78;;;24.90;73.10;;;;;;5033044;28;20116;-70
2022/08/28 03:27:09;;;;;;;6.15;3.22;;;25.00;73.20;;;;;;5032948;28;20478;-69
2022/08/28 03:29:35;;;;;;;9.45;3.33;;;25.00;72.90;;;;;;5032864;28;20509;-71
2022/08/28 03:32:01;;;;;;;8.18;2.83;;;25.00;73.00;;;;;;5032866;28;20155;-70
2022/08/28 03:34:27;;;;;;;8.88;2.88;;;25.00;72.80;;;;;;5032807;28;20025;-68
2022/08/28 03:36:53;;;;;;;9.20;2.60;;;25.00;72.90;;;;;;5032899;28;20440;-70
2022/08/28 03:39:18;;;;;;;4.95;2.75;;;25.00;72.70;;;;;;5032789;28;20029;-70
2022/08/28 03:41:44;;;;;;;5.60;2.45;;;25.00;72.60;;;;;;5032669;28;20132;-69
2022/08/28 03:44:10;;;;;;;9.13;2.95;;;24.90;72.60;;;;;;5032725;28;20482;-73
2022/08/28 03:46:35;;;;;;;7.03;2.78;;;25.00;72.70;;;;;;5032609;28;20071;-71
2022/08/28 03:49:02;;;;;;;5.90;2.67;;;24.90;72.60;;;;;;5032787;28;20021;-70
2022/08/28 03:51:31;;;;;;;5.85;3.08;;;24.90;72.70;;;;;;5032780;28;20045;-69
2022/08/28 03:54:01;;;;;;;8.63;3.13;;;24.90;72.70;;;;;;5031473;28;20399;-70
2022/08/28 03:56:28;;;;;;;6.25;2.80;;;24.90;72.70;;;;;;5035732;28;20025;-69
2022/08/28 03:58:57;;;;;;;7.05;2.78;;;24.80;72.70;;;;;;5036961;28;20091;-69
2022/08/28 04:01:23;;;;;;;5.32;2.85;;;24.80;72.70;;;;;;5036720;28;20025;-69
2022/08/28 04:03:49;;;;;;;7.95;2.58;;;24.80;72.90;;;;;;5036566;28;20394;-69
2022/08/28 04:06:15;;;;;;;8.50;3.00;;;24.80;72.80;;;;;;5018814;28;20036;-70
2022/08/28 04:08:41;;;;;;;11.65;3.10;;;24.80;72.80;;;;;;5036616;28;20030;-68
2022/08/28 04:11:08;;;;;;;10.43;3.28;;;24.80;73.00;;;;;;5036243;28;20440;-68
2022/08/28 04:13:35;;;;;;;12.32;3.15;;;24.80;72.80;;;;;;5036126;28;20446;-69
2022/08/28 04:16:10;;;;;;;7.55;3.40;;;24.80;72.80;;;;;;5036337;28;20427;-69
2022/08/28 04:18:41;;;;;;;6.20;2.85;;;24.80;73.00;;;;;;5018400;28;20021;-69
2022/08/28 04:21:19;;;;;;;7.60;3.15;;;24.80;73.10;;;;;;5036335;28;20021;-70
2022/08/28 04:23:46;;;;;;;7.68;2.97;;;24.70;73.30;;;;;;5036314;28;20021;-74
2022/08/28 04:26:17;;;;;;;9.02;3.17;;;24.70;73.50;;;;;;5036098;28;20556;-71
2022/08/28 04:28:43;;;;;;;6.80;2.78;;;24.70;73.80;;;;;;5035910;28;20025;-69
2022/08/28 04:31:09;;;;;;;6.90;2.83;;;24.60;73.90;;;;;;5036064;28;20334;-68
2022/08/28 04:33:36;;;;;;;6.35;2.72;;;24.70;73.90;;;;;;5035789;28;20065;-70
2022/08/28 04:36:04;;;;;;;10.35;3.15;;;24.70;74.00;;;;;;5035959;28;20033;-69
2022/08/28 04:38:30;;;;;;;7.07;3.10;;;24.70;73.80;;;;;;5035351;28;20030;-69
2022/08/28 04:40:56;;;;;;;7.97;3.30;;;24.50;74.00;;;;;;5035929;28;20030;-74
2022/08/28 04:43:22;;;;;;;5.68;3.17;;;24.50;74.20;;;;;;5035875;28;20028;-72
2022/08/28 04:45:48;;;;;;;10.70;3.25;;;24.50;74.10;;;;;;5036957;28;20036;-69
2022/08/28 04:48:14;;;;;;;7.97;2.92;;;24.50;74.70;;;;;;5023281;28;20025;-70
2022/08/28 04:50:45;;;;;;;6.72;3.03;;;24.50;74.00;;;;;;5038262;28;20390;-69
2022/08/28 04:53:13;;;;;;;12.23;2.95;;;24.60;74.10;;;;;;5037761;28;20087;-71
2022/08/28 04:55:45;;;;;;;6.82;2.90;;;24.60;74.00;;;;;;5038006;28;20025;-70
2022/08/28 04:58:12;;;;;;;8.48;2.72;;;24.60;74.10;;;;;;5037923;28;20083;-68
2022/08/28 05:00:39;;;;;;;8.73;2.60;;;24.70;74.10;;;;;;5035488;28;20021;-71
2022/08/28 05:03:05;;;;;;;7.93;3.13;;;24.70;73.80;;;;;;5035594;28;20417;-70
2022/08/28 05:05:31;;;;;;;9.43;3.63;;;24.80;73.60;;;;;;5035396;28;20026;-70
2022/08/28 05:07:57;;;;;;;4.75;2.78;;;24.70;73.40;;;;;;5034678;28;20033;-73
2022/08/28 05:10:24;;;;;;;7.82;3.35;;;24.80;73.60;;;;;;5035302;28;20057;-71
2022/08/28 05:12:49;;;;;;;8.07;3.55;;;24.80;73.40;;;;;;5038207;28;20030;-69
2022/08/28 05:15:15;;;;;;;6.70;3.50;;;24.80;73.20;;;;;;5042125;28;20022;-74
2022/08/28 05:17:41;;;;;;;5.00;2.85;;;24.80;73.80;;;;;;5035293;28;20021;-78
2022/08/28 05:20:07;;;;;;;6.18;3.20;;;24.80;73.20;;;;;;5035299;28;20100;-72
2022/08/28 05:22:33;;;;;;;7.72;3.38;;;24.80;73.20;;;;;;5035322;28;20022;-71
2022/08/28 05:25:01;;;;;;;6.45;2.85;;;24.70;73.50;;;;;;5035111;28;20356;-69
2022/08/28 05:27:28;;;;;;;5.38;3.00;;;24.70;72.90;;;;;;5017191;28;20336;-71
2022/08/28 05:29:54;;;;;;;8.02;3.45;;;24.70;73.50;;;;;;5034929;28;20037;-72
2022/08/28 05:32:20;;;;;;;9.98;3.08;;;24.70;73.50;;;;;;5034748;28;20029;-74
2022/08/28 05:34:46;;;;;;;6.60;3.10;;;24.70;73.70;;;;;;5034610;28;20025;-76
2022/08/28 05:37:13;;;;;;;5.88;3.00;;;24.70;73.70;;;;;;5034892;28;20032;-69
2022/08/28 05:39:40;;;;;;;8.02;3.17;;;24.70;73.90;;;;;;5034974;28;20025;-71
2022/08/28 05:42:06;;;;;;;6.93;2.60;;;24.70;72.70;;;;;;5034612;28;20053;-72
2022/08/28 05:44:31;;;;;;;7.57;3.17;;;24.80;73.40;;;;;;5034528;28;20021;-72
2022/08/28 05:46:57;;;;;;;8.85;3.45;;;24.90;73.40;;;;;;5034652;28;20029;-74
2022/08/28 05:49:23;;;;;;;5.40;3.17;;;24.90;73.20;;;;;;5034819;28;20394;-82
2022/08/28 05:51:49;;;;;;;8.73;3.17;;;25.10;72.70;;;;;;5034724;28;20053;-72
2022/08/28 05:54:15;;;;;;;7.05;4.30;;;25.30;72.10;;;;;;5034532;28;20491;-72
2022/08/28 05:56:44;;;;;;;5.15;3.10;;;25.60;71.70;;;;;;5034439;28;20022;-74
2022/08/28 05:59:11;;;;;;;5.20;3.22;;;25.90;70.50;;;;;;5034379;28;20033;-70
2022/08/28 06:01:43;;;;;;;9.32;4.40;;;26.10;70.00;;;;;;5016611;28;20544;-70
2022/08/28 06:04:13;;;;;;;10.13;4.30;;;26.40;69.00;;;;;;5034193;28;20469;-71
2022/08/28 06:06:40;;;;;;;11.93;4.30;;;26.70;68.30;;;;;;5034257;28;20026;-71
2022/08/28 06:09:13;;;;;;;9.20;3.45;;;27.10;67.10;;;;;;5034183;28;20056;-72
2022/08/28 06:11:39;;;;;;;;;;;27.30;66.10;;;;;;5034559;28;20128;-71
2022/08/28 06:14:08;;;;;;;9.48;3.30;;;27.50;64.90;;;;;;5033804;28;20285;-72
2022/08/28 06:16:37;;;;;;;7.60;3.35;;;27.70;64.70;;;;;;5016737;28;20063;-72
2022/08/28 06:19:03;;;;;;;7.05;3.63;;;28.00;64.10;;;;;;5032653;28;20022;-68
2022/08/28 06:21:28;;;;;;;8.57;3.08;;;28.20;63.10;;;;;;5033671;28;20021;-72
2022/08/28 06:23:55;;;;;;;6.35;3.17;;;28.30;62.40;;;;;;5033567;28;20021;-73
2022/08/28 06:26:21;;;;;;;6.90;3.30;;;28.50;62.10;;;;;;5016036;28;20372;-69
2022/08/28 06:28:51;;;;;;;10.80;3.55;;;28.80;61.20;;;;;;5033537;28;20014;-69
2022/08/28 06:31:19;;;;;;;5.10;2.97;;;28.90;60.00;;;;;;5033611;28;20032;-70
2022/08/28 06:33:45;;;;;;;9.90;3.33;;;28.90;59.60;;;;;;5033605;28;20596;-69
2022/08/28 06:36:11;;;;;;;8.70;3.53;;;29.00;60.00;;;;;;5033745;28;20108;-70
2022/08/28 06:38:37;;;;;;;10.07;2.92;;;29.10;59.60;;;;;;5016085;28;20021;-69
2022/08/28 06:41:10;;;;;;;7.05;3.35;;;29.30;59.40;;;;;;5033549;28;20123;-70
2022/08/28 06:43:36;;;;;;;8.18;3.85;;;29.30;59.00;;;;;;5033383;28;20021;-71
2022/08/28 06:46:02;;;;;;;6.50;2.67;;;29.30;58.90;;;;;;5033596;28;20076;-68
2022/08/28 06:48:30;;;;;;;3.80;2.65;;;29.40;58.70;;;;;;5033543;28;20068;-70
2022/08/28 06:50:56;;;;;;;8.32;3.15;;;29.30;58.60;;;;;;5033151;28;20057;-70
2022/08/28 06:53:29;;;;;;;5.75;2.67;;;29.40;58.30;;;;;;5033583;28;20038;-85
2022/08/28 06:56:00;;;;;;;6.07;2.50;;;29.50;58.00;;;;;;5015924;28;20036;-77
2022/08/28 06:58:27;;;;;;;5.13;2.53;;;29.60;57.80;;;;;;5016015;28;20025;-69
2022/08/28 07:01:14;;;;;;;8.63;3.25;;;29.60;56.80;;;;;;5039191;28;20021;-75
2022/08/28 07:03:42;;;;;;;7.82;2.30;;;29.70;57.50;;;;;;5035439;28;20025;-71
2022/08/28 07:06:12;;;;;;;6.28;2.40;;;29.90;57.50;;;;;;5053070;28;20539;-70
2022/08/28 07:08:39;;;;;;;5.53;2.70;;;29.90;56.00;;;;;;5053038;28;20045;-70
2022/08/28 07:11:14;;;;;;;6.90;3.10;;;29.80;57.00;;;;;;5052266;28;20086;-71
2022/08/28 07:13:42;;;;;;;10.90;2.90;;;30.00;56.90;;;;;;5052837;28;20114;-74
2022/08/28 07:16:10;;;;;;;6.28;2.80;;;30.10;56.60;;;;;;5053242;28;20017;-76
2022/08/28 07:18:36;;;;;;;9.32;2.63;;;30.10;56.60;;;;;;5053728;28;20027;-72
2022/08/28 07:21:02;;;;;;;7.68;3.85;;;30.20;56.20;;;;;;5056778;28;20025;-71
2022/08/28 07:23:30;;;;;;;8.10;3.33;;;30.20;56.10;;;;;;5060005;28;20508;-69
2022/08/28 07:25:57;;;;;;;6.78;3.20;;;30.20;56.20;;;;;;5062373;28;20025;-82
2022/08/28 07:28:23;;;;;;;6.28;2.70;;;30.10;56.10;;;;;;5036537;28;20119;-73
2022/08/28 07:31:02;;;;;;;8.48;3.30;;;30.20;56.90;;;;;;5050896;28;20021;-77
2022/08/28 07:33:29;;;;;;;5.38;2.70;;;30.30;55.90;;;;;;5053570;28;20033;-78
2022/08/28 07:35:56;;;;;;;5.95;2.88;;;30.30;56.20;;;;;;5036102;28;20064;-71
2022/08/28 07:38:24;;;;;;;7.53;2.95;;;30.40;56.00;;;;;;5054910;28;20024;-71
2022/08/28 07:40:50;;;;;;;9.43;3.00;;;30.40;55.80;;;;;;5056311;28;20087;-72
2022/08/28 07:46:05;;;;;;;4.38;2.53;;;30.50;55.10;;;;;;5044082;28;20044;-70
2022/08/28 07:48:34;;;;;;;8.95;3.03;;;30.60;55.80;;;;;;5047101;28;20037;-69
2022/08/28 07:51:03;;;;;;;5.15;2.40;;;30.70;55.50;;;;;;5034762;28;20036;-70
2022/08/28 07:53:29;;;;;;;7.15;2.83;;;30.50;54.10;;;;;;5046917;28;20025;-69
2022/08/28 07:55:55;;;;;;;8.57;2.95;;;30.40;55.60;;;;;;5036229;28;20029;-72
2022/08/28 07:58:24;;;;;;;7.50;2.65;;;30.30;55.30;;;;;;5053123;28;20312;-70
2022/08/28 08:00:50;;;;;;;9.75;3.60;;;30.20;55.80;;;;;;5052647;28;20036;-71
2022/08/28 08:03:16;;;;;;;8.85;3.17;;;30.10;55.80;;;;;;5053130;28;20021;-71
2022/08/28 08:05:51;;;;;;;8.23;3.65;;;30.10;55.90;;;;;;5053416;28;20021;-72
2022/08/28 08:08:16;;;;;;;6.00;2.78;;;30.10;56.20;;;;;;5052713;28;20021;-70
2022/08/28 08:10:42;;;;;;;6.90;3.25;;;30.00;56.00;;;;;;5052568;28;20083;-75
2022/08/28 08:13:08;;;;;;;6.70;2.85;;;30.00;56.20;;;;;;5053144;28;20131;-73
2022/08/28 08:15:35;;;;;;;9.25;2.90;;;30.00;56.10;;;;;;5052681;28;20036;-74
2022/08/28 08:18:00;;;;;;;5.20;3.10;;;30.00;57.00;;;;;;5053192;28;20025;-72
2022/08/28 08:20:26;;;;;;;7.40;2.60;;;30.10;57.00;;;;;;5052543;28;20036;-72
2022/08/28 08:22:56;;;;;;;9.30;4.50;;;30.00;57.90;;;;;;5053137;28;20521;-74
2022/08/28 08:25:21;;;;;;;8.50;4.97;;;29.90;57.70;;;;;;5051972;28;20025;-73
2022/08/28 08:27:49;;;;;;;6.88;4.05;;;29.80;57.80;;;;;;5051080;28;20074;-74
2022/08/28 08:30:15;;;;;;;6.28;3.55;;;29.80;58.10;;;;;;5033212;28;20484;-71
2022/08/28 08:32:41;;;;;;;9.40;3.70;;;29.80;58.40;;;;;;5050779;28;20060;-71
2022/08/28 08:35:07;;;;;;;8.00;3.33;;;29.90;58.90;;;;;;5052223;28;20029;-70
2022/08/28 08:37:33;;;;;;;6.57;2.92;;;29.90;58.50;;;;;;5052777;28;20035;-70
2022/08/28 08:39:59;;;;;;;8.45;3.83;;;29.80;58.80;;;;;;5053164;28;20494;-70
2022/08/28 08:42:26;;;;;;;6.07;2.80;;;29.80;59.10;;;;;;5052614;28;20059;-71
2022/08/28 08:44:55;;;;;;;7.35;3.40;;;29.80;59.30;;;;;;5042679;28;20021;-71
2022/08/28 08:47:47;;;;;;;7.25;3.63;;;29.90;59.20;;;;;;5069672;28;20021;-69
2022/08/28 08:50:24;;;;;;;9.20;3.70;;;29.90;59.10;;;;;;5057665;28;20422;-72
2022/08/28 08:52:58;;;;;;;6.97;3.17;;;30.00;57.90;;;;;;5053577;28;20029;-69
2022/08/28 08:55:26;;;;;;;6.70;3.17;;;30.00;58.20;;;;;;5053774;28;20017;-69
2022/08/28 08:58:00;;;;;;;7.60;3.22;;;29.90;59.10;;;;;;5050873;28;20328;-68
2022/08/28 09:00:28;;;;;;;5.53;2.70;;;29.70;59.30;;;;;;5044987;28;20021;-70
2022/08/28 09:03:04;;;;;;;5.18;2.70;;;29.70;59.50;;;;;;5052135;28;20428;-70
2022/08/28 09:06:05;;;;;;;7.03;2.67;;;29.70;59.30;;;;;;5038044;28;20036;-72
2022/08/28 09:08:41;;;;;;;5.50;2.78;;;29.80;58.50;;;;;;5052455;28;20043;-72
2022/08/28 09:11:42;;;;;;;9.38;3.10;;;29.80;58.60;;;;;;5055654;28;20037;-71
2022/08/28 09:14:18;;;;;;;4.40;2.30;;;29.90;59.20;;;;;;5055019;28;20048;-73
2022/08/28 09:16:45;;;;;;;4.47;2.50;;;29.90;58.10;;;;;;5055845;28;20028;-71
2022/08/28 09:19:17;;;;;;;6.47;2.72;;;29.90;59.00;;;;;;5037786;28;20474;-69
2022/08/28 09:21:45;;;;;;;4.78;2.35;;;29.80;59.50;;;;;;5054970;28;20430;-68
2022/08/28 09:24:23;;;;;;;4.25;2.55;;;29.80;59.30;;;;;;5053656;28;20041;-68
2022/08/28 09:26:56;;;;;;;4.63;2.85;;;29.70;58.60;;;;;;5048682;28;20044;-70
2022/08/28 09:29:28;;;;;;;11.60;3.25;;;29.70;59.60;;;;;;5046078;28;20418;-74
2022/08/28 09:31:55;;;;;;;5.80;2.97;;;29.70;59.60;;;;;;5035882;28;20047;-74
2022/08/28 09:34:29;;;;;;;7.85;3.35;;;29.80;59.50;;;;;;5034615;28;20432;-73
2022/08/28 09:36:57;;;;;;;5.93;2.97;;;29.80;58.90;;;;;;5035013;28;20025;-71
2022/08/28 09:39:34;;;;;;;7.95;3.10;;;29.80;58.70;;;;;;5034849;28;20052;-75
2022/08/28 09:45:19;;;;;;;5.30;3.47;;;30.00;58.50;;;;;;5040234;28;20087;-71
2022/08/28 09:47:51;;;;;;;18.10;2.80;;;30.00;58.30;;;;;;5057429;28;20028;-75
2022/08/28 09:50:31;;;;;;;4.07;2.67;;;30.00;59.10;;;;;;5037786;28;20436;-69
2022/08/28 09:53:13;;;;;;;4.40;2.63;;;30.10;58.00;;;;;;5045741;28;20044;-73
2022/08/28 09:56:01;;;;;;;6.45;2.65;;;30.10;58.30;;;;;;5034746;28;20027;-71
2022/08/28 09:58:50;;;;;;;5.70;2.65;;;30.10;58.20;;;;;;5041129;28;20090;-74
2022/08/28 10:01:50;;;;;;;5.32;2.60;;;30.10;58.30;;;;;;5060477;28;20056;-76
2022/08/28 10:04:48;;;;;;;6.82;3.40;;;30.20;58.20;;;;;;5052251;28;20031;-74
2022/08/28 10:07:26;;;;;;;6.45;3.22;;;30.30;58.10;;;;;;5053164;28;20020;-78
2022/08/28 10:10:17;;;;;;;11.30;3.58;;;30.30;57.30;;;;;;5053961;28;20053;-74
2022/08/28 10:13:04;;;;;;;9.60;3.35;;;30.30;58.10;;;;;;5054075;28;20048;-72
2022/08/28 10:15:45;;;;;;;5.70;2.85;;;30.40;58.00;;;;;;5053849;28;20029;-75
2022/08/28 10:18:49;;;;;;;9.07;3.75;;;30.40;58.00;;;;;;5035729;28;20398;-79
2022/08/28 10:21:45;;;;;;;8.50;3.80;;;30.50;58.70;;;;;;5052894;28;20099;-75
2022/08/28 10:24:25;;;;;;;5.70;3.60;;;30.60;58.90;;;;;;5036324;28;20029;-76
2022/08/28 10:27:01;;;;;;;9.18;3.55;;;30.60;57.90;;;;;;5053792;28;20021;-76
2022/08/28 10:29:48;;;;;;;6.95;3.20;;;30.60;58.80;;;;;;5054346;28;20027;-75
2022/08/28 10:32:17;;;;;;;9.18;4.00;;;30.70;58.10;;;;;;5053831;28;20033;-76
2022/08/28 10:35:05;;;;;;;7.05;3.72;;;30.70;59.30;;;;;;5053576;28;20041;-79
2022/08/28 10:37:40;;;;;;;9.13;4.72;;;30.80;59.50;;;;;;5053195;28;20028;-71
2022/08/28 10:40:21;;;;;;;19.02;7.20;;;30.80;59.00;;;;;;5053234;28;20037;-75
2022/08/28 10:42:55;;;;;;;13.88;5.55;;;30.80;58.30;;;;;;5053425;28;20028;-72
2022/08/28 10:45:24;;;;;;;10.13;5.10;;;30.80;58.70;;;;;;5052951;28;20424;-69
2022/08/28 10:48:18;;;;;;;7.85;3.30;;;30.90;58.40;;;;;;5053180;28;20059;-73
2022/08/28 10:50:49;;;;;;;19.77;6.80;;;30.90;58.80;;;;;;5027804;28;20047;-73
2022/08/28 10:53:26;;;;;;;11.27;5.20;;;31.00;58.00;;;;;;5044286;28;20108;-72
2022/08/28 10:56:01;;;;;;;9.77;3.50;;;30.90;57.90;;;;;;5038242;28;20021;-71
2022/08/28 10:58:29;;;;;;;13.82;5.53;;;30.90;59.10;;;;;;5040158;28;20021;-71
2022/08/28 11:01:11;;;;;;;16.20;5.75;;;30.90;58.70;;;;;;5052957;28;20091;-69
2022/08/28 11:03:45;;;;;;;10.93;4.28;;;30.90;59.10;;;;;;5052361;28;20032;-72
2022/08/28 11:06:29;;;;;;;;;;;31.00;59.50;;;;;;5050950;28;20079;-77
2022/08/28 11:08:58;;;;;;;15.48;4.57;;;30.90;61.10;;;;;;5052308;28;19912;-73
2022/08/28 11:11:45;;;;;;;10.02;4.05;;;31.00;59.50;;;;;;5050883;28;20024;-70
2022/08/28 11:14:34;;;;;;;10.05;3.47;;;31.00;61.00;;;;;;5038077;28;20159;-71
2022/08/28 11:17:29;;;;;;;11.70;5.30;;;31.00;60.70;;;;;;5032643;28;20041;-71
2022/08/28 11:19:57;;;;;;;19.75;7.90;;;31.10;59.10;;;;;;5032507;28;20048;-71
2022/08/28 11:22:28;;;;;;;9.02;3.20;;;31.10;57.80;;;;;;5040043;28;20464;-72
2022/08/28 11:25:39;;;;;;;10.27;3.67;;;31.00;59.70;;;;;;5051928;28;20086;-71
2022/08/28 11:28:23;;;;;;;12.57;4.70;;;31.10;59.20;;;;;;5038891;28;20465;-71
2022/08/28 11:31:04;;;;;;;9.95;4.18;;;31.10;58.90;;;;;;5052335;28;20092;-70
2022/08/28 11:33:49;;;;;;;8.23;3.40;;;31.20;59.20;;;;;;5052186;28;20037;-70
2022/08/28 11:36:20;;;;;;;8.05;3.30;;;31.20;58.50;;;;;;5052202;28;20024;-76
2022/08/28 11:38:54;;;;;;;9.02;3.90;;;31.20;58.70;;;;;;5051544;28;20040;-73
2022/08/28 11:41:23;;;;;;;11.05;4.15;;;31.30;57.60;;;;;;5040806;28;20017;-70
2022/08/28 11:44:11;;;;;;;7.68;3.58;;;31.40;58.30;;;;;;5051925;28;20370;-70
2022/08/28 11:46:38;;;;;;;8.50;3.30;;;31.50;57.90;;;;;;5052149;28;20037;-68
2022/08/28 11:49:32;;;;;;;14.82;5.13;;;31.50;57.80;;;;;;5051426;28;20033;-73
2022/08/28 11:52:07;;;;;;;11.25;4.82;;;31.60;56.50;;;;;;5051926;28;20100;-71
2022/08/28 11:54:54;;;;;;;7.13;3.75;;;31.70;55.90;;;;;;5052002;28;20037;-75
2022/08/28 11:57:40;;;;;;;8.23;2.95;;;31.70;56.70;;;;;;5021565;28;20461;-69
2022/08/28 12:00:20;;;;;;;6.50;3.00;;;31.70;56.00;;;;;;5052081;28;20067;-72
2022/08/28 12:02:51;;;;;;;6.38;2.55;;;31.70;56.70;;;;;;5052145;28;20067;-69
2022/08/28 12:05:17;;;;;;;12.27;4.35;;;31.80;56.30;;;;;;5051782;28;20104;-69
2022/08/28 12:07:46;;;;;;;10.32;3.38;;;31.80;56.30;;;;;;5034474;28;20124;-69
2022/08/28 12:10:32;;;;;;;8.02;3.53;;;31.90;56.70;;;;;;5035074;28;20049;-69
2022/08/28 12:13:07;;;;;;;8.35;3.20;;;32.00;56.70;;;;;;5041527;28;20051;-70
2022/08/28 12:15:33;;;;;;;9.02;2.90;;;32.00;54.90;;;;;;5052635;28;20033;-71
2022/08/28 12:18:10;;;;;;;5.72;2.85;;;32.10;55.80;;;;;;5053644;28;20027;-71
2022/08/28 12:20:52;;;;;;;11.13;3.25;;;32.10;55.70;;;;;;5037841;28;20040;-70
2022/08/28 12:23:36;;;;;;;8.77;3.28;;;32.20;54.40;;;;;;5055560;28;20037;-71
2022/08/28 12:26:05;;;;;;;8.48;2.90;;;32.20;54.20;;;;;;5055727;28;20044;-74
2022/08/28 12:28:36;;;;;;;8.10;3.20;;;32.20;55.20;;;;;;5055603;28;20024;-72
2022/08/28 12:31:04;;;;;;;6.60;3.33;;;32.20;55.70;;;;;;5055454;28;20128;-73
2022/08/28 12:33:59;;;;;;;6.95;2.67;;;32.20;55.10;;;;;;5055500;28;20041;-72
2022/08/28 12:36:27;;;;;;;7.95;3.45;;;32.00;53.90;;;;;;5055459;28;20115;-73
2022/08/28 12:38:57;;;;;;;5.82;2.80;;;32.00;55.30;;;;;;5055343;28;20052;-69
2022/08/28 12:41:23;;;;;;;5.40;2.55;;;32.00;55.60;;;;;;5055380;28;20032;-71
2022/08/28 12:43:55;;;;;;;10.18;2.90;;;32.00;55.30;;;;;;5055974;28;20032;-70
2022/08/28 12:46:20;;;;;;;6.13;3.65;;;31.90;56.10;;;;;;5041516;28;20463;-72
2022/08/28 12:48:51;;;;;;;8.02;2.63;;;31.90;55.70;;;;;;5054775;28;20067;-72
2022/08/28 12:51:26;;;;;;;4.03;2.20;;;31.80;53.90;;;;;;5055236;28;20028;-71
2022/08/28 12:53:58;;;;;;;5.85;2.70;;;31.80;54.80;;;;;;5055066;28;20040;-71
2022/08/28 12:56:25;;;;;;;5.03;2.60;;;31.80;54.60;;;;;;5034204;28;20036;-71
2022/08/28 12:58:51;;;;;;;7.80;2.50;;;31.90;54.80;;;;;;5038869;28;20080;-76
2022/08/28 13:01:20;;;;;;;4.70;2.92;;;32.00;55.00;;;;;;5000806;28;20076;-71
2022/08/28 13:04:00;;;;;;;8.98;3.55;;;32.20;55.80;;;;;;5034897;28;20079;-73
2022/08/28 13:06:35;;;;;;;4.85;2.30;;;32.30;54.60;;;;;;5017212;28;20025;-70
2022/08/28 13:09:12;;;;;;;6.38;1.80;;;32.40;53.70;;;;;;5034657;28;20084;-69
2022/08/28 13:11:44;;;;;;;5.53;1.95;;;32.40;53.90;;;;;;5017002;28;20030;-73
2022/08/28 13:14:11;;;;;;;7.15;2.05;;;32.50;54.00;;;;;;5034445;28;20033;-71
2022/08/28 13:16:43;;;;;;;6.85;2.58;;;32.50;54.10;;;;;;5034714;28;20021;-69